createdAt,value
2023-02-06T00:01:36.247Z,4.50
2023-02-06T00:04:04.400Z,4.50
2023-02-06T00:06:33.264Z,4.50
2023-02-06T00:09:01.362Z,4.60
2023-02-06T00:11:29.397Z,4.60
2023-02-06T00:13:57.538Z,4.60
2023-02-06T00:16:27.385Z,4.70
2023-02-06T00:18:58.585Z,4.70
2023-02-06T00:21:28.088Z,4.70
2023-02-06T00:23:58.630Z,4.70
2023-02-06T00:26:27.415Z,4.80
2023-02-06T00:28:55.600Z,4.80
2023-02-06T00:31:23.910Z,4.80
2023-02-06T00:33:52.026Z,4.90
2023-02-06T00:36:21.424Z,4.90
2023-02-06T00:38:49.564Z,4.90
2023-02-06T00:41:17.674Z,4.90
2023-02-06T00:43:45.838Z,4.90
2023-02-06T00:46:13.944Z,4.90
2023-02-06T00:48:42.114Z,4.90
2023-02-06T00:51:10.185Z,4.90
2023-02-06T00:53:40.076Z,5.00
2023-02-06T00:56:08.428Z,5.00
2023-02-06T00:58:36.575Z,5.00
2023-02-06T01:01:04.706Z,5.00
2023-02-06T01:03:32.820Z,4.90
2023-02-06T01:06:00.911Z,5.00
2023-02-06T01:08:29.070Z,4.90
2023-02-06T01:10:58.485Z,4.90
2023-02-06T01:13:26.670Z,4.90
2023-02-06T01:15:54.728Z,5.00
2023-02-06T01:18:22.850Z,5.00
2023-02-06T01:20:50.869Z,5.00
2023-02-06T01:23:18.955Z,5.10
2023-02-06T01:25:46.977Z,5.10
2023-02-06T01:28:16.477Z,5.10
2023-02-06T01:30:44.620Z,5.10
2023-02-06T01:33:12.754Z,5.10
2023-02-06T01:35:40.783Z,5.10
2023-02-06T01:38:08.883Z,5.10
2023-02-06T01:40:36.981Z,5.10
2023-02-06T01:43:05.164Z,5.10
2023-02-06T01:45:43.472Z,5.10
2023-02-06T01:48:18.235Z,5.10
2023-02-06T01:50:49.308Z,5.10
2023-02-06T01:53:19.254Z,5.10
2023-02-06T01:55:49.334Z,5.10
2023-02-06T01:58:22.270Z,5.10
2023-02-06T02:00:51.861Z,5.10
2023-02-06T02:03:20.092Z,5.20
2023-02-06T02:05:49.936Z,5.20
2023-02-06T02:08:22.194Z,5.20
2023-02-06T02:10:50.370Z,5.20
2023-02-06T02:13:18.637Z,5.20
2023-02-06T02:15:59.557Z,5.20
2023-02-06T02:18:42.785Z,5.20
2023-02-06T02:21:49.413Z,5.20
2023-02-06T02:24:26.474Z,5.10
2023-02-06T02:27:14.516Z,5.00
2023-02-06T02:30:07.608Z,5.00
2023-02-06T02:33:13.313Z,4.90
2023-02-06T02:35:54.809Z,4.90
2023-02-06T02:38:35.412Z,4.80
2023-02-06T02:41:09.606Z,4.80
2023-02-06T02:43:43.399Z,4.80
2023-02-06T02:46:18.945Z,4.70
2023-02-06T02:48:50.181Z,4.70
2023-02-06T02:51:20.131Z,4.70
2023-02-06T02:53:48.438Z,4.60
2023-02-06T02:56:21.327Z,4.60
2023-02-06T02:58:54.524Z,4.60
2023-02-06T03:01:27.655Z,4.50
2023-02-06T03:03:58.070Z,4.50
2023-02-06T03:06:49.693Z,4.50
2023-02-06T03:09:27.738Z,4.50
2023-02-06T03:12:05.614Z,4.50
2023-02-06T03:14:37.620Z,4.50
2023-02-06T03:17:10.933Z,4.40
2023-02-06T03:19:43.625Z,4.40
2023-02-06T03:22:15.153Z,4.40
2023-02-06T03:24:43.216Z,4.40
2023-02-06T03:27:16.050Z,4.30
2023-02-06T03:29:46.152Z,4.40
2023-02-06T03:32:18.539Z,4.30
2023-02-06T03:34:52.656Z,4.30
2023-02-06T03:37:23.334Z,4.30
2023-02-06T03:39:51.493Z,4.30
2023-02-06T03:42:22.838Z,4.30
2023-02-06T03:44:55.729Z,4.30
2023-02-06T03:47:25.405Z,4.20
2023-02-06T03:49:56.250Z,4.20
2023-02-06T03:52:28.736Z,4.20
2023-02-06T03:55:02.374Z,4.20
2023-02-06T03:57:33.134Z,4.10
2023-02-06T04:00:01.223Z,4.10
2023-02-06T04:02:30.009Z,4.10
2023-02-06T04:04:58.155Z,4.10
2023-02-06T04:07:30.716Z,4.00
2023-02-06T04:09:58.748Z,4.00
2023-02-06T04:12:27.024Z,4.00
2023-02-06T04:14:55.132Z,3.90
2023-02-06T04:17:40.514Z,3.90
2023-02-06T04:20:12.194Z,3.90
2023-02-06T04:22:42.619Z,3.90
2023-02-06T04:25:10.684Z,3.90
2023-02-06T04:27:38.999Z,3.90
2023-02-06T04:30:08.138Z,3.90
2023-02-06T04:32:36.197Z,4.00
2023-02-06T04:35:04.323Z,4.00
2023-02-06T04:37:33.173Z,4.10
2023-02-06T04:40:02.663Z,4.10
2023-02-06T04:42:30.736Z,4.10
2023-02-06T04:44:58.754Z,4.10
2023-02-06T04:47:26.961Z,4.20
2023-02-06T04:49:55.023Z,4.20
2023-02-06T04:52:23.052Z,4.20
2023-02-06T04:54:51.283Z,4.30
2023-02-06T04:57:20.707Z,4.30
2023-02-06T04:59:48.770Z,4.30
2023-02-06T05:02:16.873Z,4.30
2023-02-06T05:04:44.909Z,4.40
2023-02-06T05:07:12.933Z,4.40
2023-02-06T05:09:41.111Z,4.40
2023-02-06T05:12:09.222Z,4.40
2023-02-06T05:14:38.671Z,4.30
2023-02-06T05:17:06.695Z,4.30
2023-02-06T05:19:34.822Z,4.20
2023-02-06T05:22:03.039Z,4.20
2023-02-06T05:24:31.246Z,4.10
2023-02-06T05:26:59.289Z,4.10
2023-02-06T05:29:27.792Z,4.00
2023-02-06T05:31:57.921Z,4.00
2023-02-06T05:34:26.265Z,3.90
2023-02-06T05:36:54.304Z,3.90
2023-02-06T05:39:22.606Z,3.80
2023-02-06T05:41:50.697Z,3.80
2023-02-06T05:44:18.853Z,3.70
2023-02-06T05:46:48.401Z,3.70
2023-02-06T05:49:18.181Z,3.60
2023-02-06T05:51:46.220Z,3.60
2023-02-06T05:54:16.931Z,3.60
2023-02-06T05:56:45.138Z,3.50
2023-02-06T05:59:13.214Z,3.50
2023-02-06T06:01:41.260Z,3.40
2023-02-06T06:04:09.338Z,3.40
2023-02-06T06:06:38.750Z,3.40
2023-02-06T06:09:06.795Z,3.40
2023-02-06T06:11:34.836Z,3.40
2023-02-06T06:14:02.961Z,3.40
2023-02-06T06:16:30.998Z,3.40
2023-02-06T06:18:59.185Z,3.40
2023-02-06T06:21:27.347Z,3.40
2023-02-06T06:23:56.909Z,3.50
2023-02-06T06:26:25.025Z,3.60
2023-02-06T06:28:53.287Z,3.60
2023-02-06T06:31:21.465Z,3.60
2023-02-06T06:33:49.570Z,3.60
2023-02-06T06:36:17.812Z,3.60
2023-02-06T06:38:45.892Z,3.60
2023-02-06T06:41:15.514Z,3.60
2023-02-06T06:43:43.619Z,3.60
2023-02-06T06:46:11.700Z,3.60
2023-02-06T06:48:40.327Z,3.60
2023-02-06T06:51:08.532Z,3.60
2023-02-06T06:53:39.898Z,3.60
2023-02-06T06:56:10.859Z,3.60
2023-02-06T06:58:40.485Z,3.60
2023-02-06T07:01:09.586Z,3.60
2023-02-06T07:03:37.800Z,3.60
2023-02-06T07:06:06.233Z,3.70
2023-02-06T07:08:35.966Z,3.70
2023-02-06T07:11:04.054Z,3.70
2023-02-06T07:13:32.086Z,3.80
2023-02-06T07:16:01.541Z,3.80
2023-02-06T07:18:29.763Z,3.90
2023-02-06T07:20:57.805Z,3.90
2023-02-06T07:23:25.842Z,4.00
2023-02-06T07:25:54.053Z,4.00
2023-02-06T07:28:22.153Z,4.10
2023-02-06T07:30:50.268Z,4.20
2023-02-06T07:33:19.741Z,4.20
2023-02-06T07:35:48.153Z,4.30
2023-02-06T07:38:16.181Z,4.40
2023-02-06T07:40:45.412Z,4.50
2023-02-06T07:43:14.260Z,4.50
2023-02-06T07:45:42.544Z,4.70
2023-02-06T07:48:10.764Z,4.70
2023-02-06T07:50:40.217Z,4.80
2023-02-06T07:53:08.331Z,4.90
2023-02-06T07:55:38.593Z,5.00
2023-02-06T07:58:06.930Z,5.10
2023-02-06T08:00:35.054Z,5.20
2023-02-06T08:03:03.189Z,5.30
2023-02-06T08:05:31.253Z,5.40
2023-02-06T08:08:00.990Z,5.50
2023-02-06T08:10:29.488Z,5.70
2023-02-06T08:12:57.667Z,5.80
2023-02-06T08:15:25.946Z,6.00
2023-02-06T08:17:54.184Z,6.20
2023-02-06T08:20:22.323Z,6.50
2023-02-06T08:22:50.485Z,6.60
2023-02-06T08:25:20.057Z,6.90
2023-02-06T08:27:48.361Z,7.10
2023-02-06T08:30:16.702Z,7.30
2023-02-06T08:32:44.876Z,7.40
2023-02-06T08:35:12.894Z,7.50
2023-02-06T08:37:41.640Z,7.70
2023-02-06T08:40:10.867Z,7.80
2023-02-06T08:42:40.619Z,7.90
2023-02-06T08:45:09.639Z,7.90
2023-02-06T08:47:37.694Z,7.90
2023-02-06T08:50:06.281Z,7.90
2023-02-06T08:52:34.313Z,7.90
2023-02-06T08:55:02.401Z,7.90
2023-02-06T08:57:30.432Z,7.90
2023-02-06T08:59:59.892Z,7.90
2023-02-06T09:02:28.008Z,7.90
2023-02-06T09:04:56.046Z,7.80
2023-02-06T09:07:24.480Z,7.90
2023-02-06T09:09:52.600Z,7.80
2023-02-06T09:12:21.668Z,7.70
2023-02-06T09:14:49.915Z,7.70
2023-02-06T09:17:19.429Z,7.70
2023-02-06T09:19:47.482Z,7.70
2023-02-06T09:22:15.504Z,7.70
2023-02-06T09:24:43.850Z,7.80
2023-02-06T09:27:11.876Z,7.90
2023-02-06T09:29:39.949Z,8.00
2023-02-06T09:32:08.078Z,8.10
2023-02-06T09:34:37.770Z,8.30
2023-02-06T09:37:06.811Z,8.40
2023-02-06T09:39:34.911Z,8.70
2023-02-06T09:42:07.526Z,8.90
2023-02-06T09:44:39.469Z,9.10
2023-02-06T09:47:14.439Z,9.20
2023-02-06T09:49:46.498Z,9.30
2023-02-06T09:52:27.005Z,9.40
2023-02-06T09:55:03.211Z,9.50
2023-02-06T09:57:40.015Z,9.40
2023-02-06T10:00:17.559Z,9.50
2023-02-06T10:03:01.974Z,9.50
2023-02-06T10:05:48.457Z,9.50
2023-02-06T10:08:23.762Z,9.40
2023-02-06T10:10:55.473Z,9.20
2023-02-06T10:13:27.499Z,9.20
2023-02-06T10:16:01.479Z,9.30
2023-02-06T10:18:35.261Z,9.50
2023-02-06T10:21:12.298Z,9.70
2023-02-06T10:23:47.623Z,10.00
2023-02-06T10:26:18.627Z,10.40
2023-02-06T10:28:51.268Z,10.70
2023-02-06T10:31:47.634Z,10.90
2023-02-06T10:34:28.437Z,11.10
2023-02-06T10:37:14.908Z,11.20
2023-02-06T10:40:05.004Z,11.30
2023-02-06T10:42:47.775Z,11.30
2023-02-06T10:45:27.687Z,11.30
2023-02-06T10:48:01.545Z,11.30
2023-02-06T10:50:31.751Z,11.40
2023-02-06T10:53:05.258Z,11.50
2023-02-06T10:55:40.509Z,11.40
2023-02-06T10:58:17.506Z,11.40
2023-02-06T11:00:47.112Z,11.40
2023-02-06T11:03:19.687Z,11.40
2023-02-06T11:05:48.017Z,11.40
2023-02-06T11:08:22.927Z,11.40
2023-02-06T11:10:51.101Z,11.50
2023-02-06T11:13:26.839Z,11.70
2023-02-06T11:16:02.493Z,11.80
2023-02-06T11:18:34.298Z,11.90
2023-02-06T11:21:03.144Z,11.90
2023-02-06T11:23:34.694Z,11.90
2023-02-06T11:26:09.021Z,12.10
2023-02-06T11:28:39.785Z,12.40
2023-02-06T11:31:10.048Z,12.60
2023-02-06T11:33:42.699Z,12.70
2023-02-06T11:36:24.398Z,12.80
2023-02-06T11:38:59.245Z,13.00
2023-02-06T11:41:27.642Z,13.20
2023-02-06T11:44:02.480Z,13.30
2023-02-06T11:46:32.442Z,13.40
2023-02-06T11:49:07.204Z,13.40
2023-02-06T11:51:51.395Z,13.40
2023-02-06T11:54:29.757Z,13.30
2023-02-06T11:57:04.301Z,13.20
2023-02-06T11:59:34.648Z,13.10
2023-02-06T12:02:06.990Z,13.10
2023-02-06T12:04:39.619Z,13.20
2023-02-06T12:07:21.884Z,13.20
2023-02-06T12:09:53.167Z,13.20
2023-02-06T12:12:26.602Z,13.10
2023-02-06T12:14:57.888Z,13.00
2023-02-06T12:17:30.124Z,12.80
2023-02-06T12:20:03.968Z,12.60
2023-02-06T12:22:46.020Z,12.40
2023-02-06T12:25:34.652Z,12.50
2023-02-06T12:28:10.405Z,12.70
2023-02-06T12:30:43.393Z,12.70
2023-02-06T12:33:17.107Z,12.90
2023-02-06T12:35:48.260Z,12.90
2023-02-06T12:38:24.070Z,12.80
2023-02-06T12:41:09.310Z,12.60
2023-02-06T12:43:41.302Z,12.40
2023-02-06T12:46:17.361Z,12.20
2023-02-06T12:48:51.522Z,12.00
2023-02-06T12:51:23.948Z,12.00
2023-02-06T12:53:57.332Z,11.90
2023-02-06T12:56:31.155Z,11.70
2023-02-06T12:59:12.047Z,11.60
2023-02-06T13:01:56.759Z,11.50
2023-02-06T13:04:28.615Z,11.80
2023-02-06T13:07:04.002Z,12.80
2023-02-06T13:09:35.954Z,13.40
2023-02-06T13:12:13.530Z,13.50
2023-02-06T13:14:48.105Z,13.30
2023-02-06T13:17:20.668Z,12.90
2023-02-06T13:20:00.611Z,12.70
2023-02-06T13:22:49.360Z,13.10
2023-02-06T13:25:47.463Z,13.20
2023-02-06T13:28:46.732Z,13.10
2023-02-06T13:31:29.452Z,13.00
2023-02-06T13:34:01.084Z,13.10
2023-02-06T13:36:44.554Z,12.90
2023-02-06T13:39:41.277Z,12.50
2023-02-06T13:42:36.137Z,12.20
2023-02-06T13:45:07.682Z,11.80
2023-02-06T13:48:06.525Z,11.60
2023-02-06T13:50:43.981Z,11.30
2023-02-06T13:53:41.318Z,11.00
2023-02-06T13:56:21.481Z,10.70
2023-02-06T13:58:51.894Z,10.50
2023-02-06T14:01:23.861Z,10.40
2023-02-06T14:03:54.314Z,10.30
2023-02-06T14:06:41.493Z,10.40
2023-02-06T14:09:30.413Z,10.50
2023-02-06T14:12:24.115Z,10.50
2023-02-06T14:15:03.907Z,10.40
2023-02-06T14:18:00.256Z,10.30
2023-02-06T14:20:39.332Z,10.10
2023-02-06T14:23:15.749Z,9.90
2023-02-06T14:25:54.823Z,9.70
2023-02-06T14:28:31.560Z,9.60
2023-02-06T14:31:06.501Z,9.50
2023-02-06T14:33:53.629Z,9.60
2023-02-06T14:36:41.817Z,9.80
2023-02-06T14:39:36.274Z,10.20
2023-02-06T14:42:09.003Z,10.40
2023-02-06T14:44:37.165Z,10.60
2023-02-06T14:47:05.400Z,10.60
2023-02-06T14:49:38.279Z,10.50
2023-02-06T14:52:06.961Z,10.30
2023-02-06T14:54:38.257Z,10.20
2023-02-06T14:57:20.726Z,9.90
2023-02-06T14:59:57.998Z,9.70
2023-02-06T15:02:32.155Z,9.70
2023-02-06T15:05:03.065Z,9.90
2023-02-06T15:07:32.961Z,10.00
2023-02-06T15:10:08.519Z,10.00
2023-02-06T15:12:37.502Z,9.90
2023-02-06T15:15:17.765Z,9.70
2023-02-06T15:17:57.286Z,9.50
2023-02-06T15:20:33.395Z,9.30
2023-02-06T15:23:16.979Z,9.10
2023-02-06T15:26:03.588Z,9.00
2023-02-06T15:28:34.628Z,8.90
2023-02-06T15:31:03.719Z,8.80
2023-02-06T15:33:34.667Z,8.70
2023-02-06T15:36:05.335Z,8.60
2023-02-06T15:38:35.028Z,8.40
2023-02-06T15:41:06.607Z,8.30
2023-02-06T15:43:35.579Z,8.10
2023-02-06T15:46:06.290Z,8.00
2023-02-06T15:48:38.042Z,7.90
2023-02-06T15:51:21.231Z,7.80
2023-02-06T15:53:51.399Z,7.70
2023-02-06T15:56:24.135Z,7.70
2023-02-06T15:58:58.132Z,7.60
2023-02-06T16:01:27.605Z,7.50
2023-02-06T16:04:00.766Z,7.40
2023-02-06T16:06:30.210Z,7.30
2023-02-06T16:09:01.869Z,7.20
2023-02-06T16:11:47.462Z,7.10
2023-02-06T16:14:21.560Z,7.10
2023-02-06T16:16:58.568Z,7.00
2023-02-06T16:19:39.686Z,7.00
2023-02-06T16:22:18.170Z,6.90
2023-02-06T16:24:46.916Z,6.80
2023-02-06T16:27:21.372Z,6.70
2023-02-06T16:29:52.648Z,6.70
2023-02-06T16:32:24.506Z,6.70
2023-02-06T16:34:52.926Z,6.60
2023-02-06T16:37:24.737Z,6.60
2023-02-06T16:39:53.096Z,6.60
2023-02-06T16:42:23.226Z,6.60
2023-02-06T16:44:58.966Z,6.60
2023-02-06T16:47:27.698Z,6.60
2023-02-06T16:49:55.775Z,6.50
2023-02-06T16:52:27.131Z,6.50
2023-02-06T16:54:57.761Z,6.50
2023-02-06T16:57:30.029Z,6.50
2023-02-06T16:59:58.221Z,6.50
2023-02-06T17:02:27.892Z,6.50
2023-02-06T17:04:56.735Z,6.50
2023-02-06T17:07:28.290Z,6.50
2023-02-06T17:09:57.874Z,6.50
2023-02-06T17:12:26.000Z,6.50
2023-02-06T17:14:54.096Z,6.50
2023-02-06T17:17:23.800Z,6.50
2023-02-06T17:19:53.345Z,6.50
2023-02-06T17:22:21.906Z,6.40
2023-02-06T17:24:51.363Z,6.40
2023-02-06T17:27:22.307Z,6.30
2023-02-06T17:29:51.386Z,6.30
2023-02-06T17:32:22.193Z,6.20
2023-02-06T17:34:51.506Z,6.20
2023-02-06T17:37:21.639Z,6.10
2023-02-06T17:39:52.742Z,6.10
2023-02-06T17:42:23.178Z,6.00
2023-02-06T17:44:51.495Z,6.00
2023-02-06T17:47:19.602Z,5.90
2023-02-06T17:49:47.835Z,5.90
2023-02-06T17:52:16.154Z,5.80
2023-02-06T17:54:45.359Z,5.80
2023-02-06T17:57:14.879Z,5.80
2023-02-06T17:59:42.984Z,5.80
2023-02-06T18:02:13.714Z,5.80
2023-02-06T18:04:41.798Z,5.80
2023-02-06T18:07:09.897Z,5.80
2023-02-06T18:09:41.066Z,5.70
2023-02-06T18:12:10.257Z,5.70
2023-02-06T18:14:40.679Z,5.60
2023-02-06T18:17:09.694Z,5.60
2023-02-06T18:19:42.389Z,5.60
2023-02-06T18:22:12.087Z,5.60
2023-02-06T18:24:40.784Z,5.50
2023-02-06T18:27:09.718Z,5.50
2023-02-06T18:29:49.260Z,5.50
2023-02-06T18:32:18.581Z,5.40
2023-02-06T18:34:47.043Z,5.40
2023-02-06T18:37:15.363Z,5.40
2023-02-06T18:39:43.519Z,5.40
2023-02-06T18:42:29.722Z,5.30
2023-02-06T18:44:59.195Z,5.30
2023-02-06T18:47:27.303Z,5.30
2023-02-06T18:49:55.428Z,5.30
2023-02-06T18:52:23.555Z,5.20
2023-02-06T18:54:51.669Z,5.20
2023-02-06T18:57:19.746Z,5.20
2023-02-06T18:59:47.931Z,5.20
2023-02-06T19:02:17.617Z,5.10
2023-02-06T19:04:45.770Z,5.10
2023-02-06T19:07:13.836Z,5.10
2023-02-06T19:09:41.914Z,5.10
2023-02-06T19:12:10.406Z,5.10
2023-02-06T19:14:38.664Z,5.10
2023-02-06T19:17:06.905Z,5.10
2023-02-06T19:19:36.331Z,5.00
2023-02-06T19:22:04.367Z,5.00
2023-02-06T19:24:32.553Z,5.00
2023-02-06T19:27:02.023Z,4.90
2023-02-06T19:29:36.307Z,4.90
2023-02-06T19:32:05.423Z,4.90
2023-02-06T19:34:36.081Z,4.80
2023-02-06T19:37:06.322Z,4.80
2023-02-06T19:39:35.754Z,4.80
2023-02-06T19:42:06.674Z,4.70
2023-02-06T19:44:35.451Z,4.70
2023-02-06T19:47:03.808Z,4.70
2023-02-06T19:49:32.132Z,4.60
2023-02-06T19:52:00.229Z,4.60
2023-02-06T19:54:29.931Z,4.50
2023-02-06T19:56:58.045Z,4.50
2023-02-06T19:59:28.394Z,4.50
2023-02-06T20:01:58.729Z,4.50
2023-02-06T20:04:28.625Z,4.50
2023-02-06T20:06:56.907Z,4.40
2023-02-06T20:09:25.743Z,4.40
2023-02-06T20:11:55.753Z,4.40
2023-02-06T20:14:25.076Z,4.40
2023-02-06T20:16:53.333Z,4.40
2023-02-06T20:19:23.372Z,4.40
2023-02-06T20:21:54.435Z,4.30
2023-02-06T20:24:24.629Z,4.30
2023-02-06T20:26:56.321Z,4.30
2023-02-06T20:29:27.693Z,4.30
2023-02-06T20:31:56.679Z,4.30
2023-02-06T20:34:25.750Z,4.30
2023-02-06T20:36:54.245Z,4.20
2023-02-06T20:39:22.684Z,4.20
2023-02-06T20:41:50.912Z,4.20
2023-02-06T20:44:21.634Z,4.20
2023-02-06T20:46:49.787Z,4.10
2023-02-06T20:49:20.039Z,4.10
2023-02-06T20:51:49.018Z,4.10
2023-02-06T20:54:17.609Z,4.10
2023-02-06T20:56:46.360Z,4.10
2023-02-06T20:59:15.718Z,4.10
2023-02-06T21:01:45.441Z,4.20
2023-02-06T21:04:15.588Z,4.20
2023-02-06T21:06:44.436Z,4.20
2023-02-06T21:09:13.306Z,4.20
2023-02-06T21:11:44.822Z,4.20
2023-02-06T21:14:13.910Z,4.10
2023-02-06T21:16:43.679Z,4.20
2023-02-06T21:19:15.486Z,4.20
2023-02-06T21:21:46.094Z,4.20
2023-02-06T21:24:14.668Z,4.20
2023-02-06T21:26:43.362Z,4.20
2023-02-06T21:29:13.802Z,4.20
2023-02-06T21:31:42.211Z,4.30
2023-02-06T21:34:16.969Z,4.40
2023-02-06T21:36:45.835Z,4.40
2023-02-06T21:39:17.612Z,4.40
2023-02-06T21:41:46.305Z,4.50
2023-02-06T21:44:14.562Z,4.50
2023-02-06T21:46:42.633Z,4.50
2023-02-06T21:49:11.727Z,4.50
2023-02-06T21:51:41.301Z,4.50
2023-02-06T21:54:09.875Z,4.50
2023-02-06T21:56:39.363Z,4.50
2023-02-06T21:59:08.861Z,4.40
2023-02-06T22:01:38.263Z,4.40
2023-02-06T22:04:06.458Z,4.30
2023-02-06T22:06:36.939Z,4.20
2023-02-06T22:09:08.571Z,4.20
2023-02-06T22:11:39.052Z,4.10
2023-02-06T22:14:12.065Z,4.10
2023-02-06T22:16:40.670Z,4.00
2023-02-06T22:19:09.086Z,4.00
2023-02-06T22:21:37.410Z,3.90
2023-02-06T22:24:09.052Z,3.90
2023-02-06T22:26:39.376Z,3.80
2023-02-06T22:29:08.522Z,3.80
2023-02-06T22:31:38.612Z,3.70
2023-02-06T22:34:11.740Z,3.70
2023-02-06T22:36:40.320Z,3.60
2023-02-06T22:39:12.482Z,3.60
2023-02-06T22:41:42.231Z,3.50
2023-02-06T22:44:11.580Z,3.40
2023-02-06T22:46:40.591Z,3.40
2023-02-06T22:49:09.929Z,3.30
2023-02-06T22:51:38.582Z,3.30
2023-02-06T22:54:09.376Z,3.20
2023-02-06T22:56:41.235Z,3.20
2023-02-06T22:59:12.443Z,3.10
2023-02-06T23:01:42.835Z,3.00
2023-02-06T23:04:14.482Z,3.00
2023-02-06T23:06:43.378Z,3.00
2023-02-06T23:09:14.595Z,3.00
2023-02-06T23:11:44.141Z,2.90
2023-02-06T23:14:14.049Z,2.90
2023-02-06T23:16:42.809Z,2.90
2023-02-06T23:19:13.235Z,2.90
2023-02-06T23:21:42.977Z,2.90
2023-02-06T23:24:11.776Z,2.90
2023-02-06T23:26:41.823Z,2.90
2023-02-06T23:29:15.704Z,2.90
2023-02-06T23:31:44.235Z,2.90
2023-02-06T23:34:12.472Z,2.90
2023-02-06T23:36:40.970Z,2.90
2023-02-06T23:39:09.078Z,2.80
2023-02-06T23:41:37.103Z,2.80
2023-02-06T23:44:07.130Z,2.80
2023-02-06T23:46:38.472Z,2.70
2023-02-06T23:49:06.962Z,2.70
2023-02-06T23:51:36.415Z,2.70
2023-02-06T23:54:05.252Z,2.60
2023-02-06T23:56:34.011Z,2.60
2023-02-06T23:59:03.946Z,2.60
